Time;durP1;ratioP1;P1;durP2;ratioP2;P2;SDS_P1;SDS_P2;PMS_P1;PMS_P2;Temp;Humidity;BMP_temperature;BMP_pressure;BME280_temperature;BME280_humidity;BME280_pressure;Samples;Min_cycle;Max_cycle;Signal;HPM_P1;HPM_P2
2024/01/30 00:02:22;;;;;;;8.50;5.88;;;1.00;99.90;;;;;;5065895;28;20040;-74
2024/01/30 00:04:48;;;;;;;15.32;9.00;;;0.40;99.90;;;;;;5084520;28;20052;-74
2024/01/30 00:07:13;;;;;;;9.65;6.85;;;0.50;99.90;;;;;;5083381;28;20021;-75
2024/01/30 00:09:39;;;;;;;11.85;6.07;;;0.50;99.90;;;;;;5083688;28;20025;-76
2024/01/30 00:12:06;;;;;;;10.80;6.40;;;0.70;99.90;;;;;;5065962;28;20020;-80
2024/01/30 00:14:32;;;;;;;13.57;5.72;;;0.30;99.90;;;;;;5065044;28;20023;-76
2024/01/30 00:16:57;;;;;;;13.60;6.88;;;0.30;99.90;;;;;;5066234;28;20211;-75
2024/01/30 00:19:23;;;;;;;12.68;6.55;;;0.30;99.90;;;;;;5082448;28;20039;-76
2024/01/30 00:21:49;;;;;;;10.05;5.90;;;0.40;99.90;;;;;;5082869;28;20267;-76
2024/01/30 00:24:14;;;;;;;11.32;5.88;;;0.40;99.90;;;;;;5065915;28;20012;-76
2024/01/30 00:26:40;;;;;;;9.45;5.80;;;0.20;99.90;;;;;;5083551;28;20021;-77
2024/01/30 00:29:06;;;;;;;10.23;6.53;;;0.10;99.90;;;;;;5083457;28;20047;-75
2024/01/30 00:31:31;;;;;;;13.63;7.18;;;0.10;99.90;;;;;;5066412;28;20032;-78
2024/01/30 00:33:57;;;;;;;9.73;5.43;;;0.10;99.90;;;;;;5081837;28;20051;-78
2024/01/30 00:36:23;;;;;;;12.18;7.88;;;0.00;99.90;;;;;;5065943;28;20028;-78
2024/01/30 00:38:48;;;;;;;11.00;5.47;;;0.00;99.90;;;;;;5066243;28;20074;-77
2024/01/30 00:41:17;;;;;;;6.68;5.28;;;-0.10;99.90;;;;;;5065883;28;20035;-76
2024/01/30 00:43:42;;;;;;;11.25;4.93;;;0.00;99.90;;;;;;5083522;28;20029;-76
2024/01/30 00:46:08;;;;;;;9.07;6.10;;;-0.10;99.90;;;;;;5065527;28;20020;-76
2024/01/30 00:48:34;;;;;;;11.80;5.63;;;0.10;99.90;;;;;;5083655;28;20021;-76
2024/01/30 00:50:59;;;;;;;10.32;5.88;;;0.40;99.90;;;;;;5064067;28;20016;-75
2024/01/30 00:53:26;;;;;;;12.80;6.13;;;0.50;99.90;;;;;;5083150;28;20339;-75
2024/01/30 00:55:52;;;;;;;13.27;6.65;;;0.30;99.90;;;;;;5083279;28;20024;-75
2024/01/30 00:58:19;;;;;;;12.18;6.50;;;0.10;99.90;;;;;;5065072;28;20017;-75
2024/01/30 01:00:44;;;;;;;10.95;6.38;;;0.00;99.90;;;;;;5065257;28;20198;-76
2024/01/30 01:03:10;;;;;;;9.77;5.57;;;-0.20;99.90;;;;;;5064620;28;20075;-76
2024/01/30 01:05:36;;;;;;;12.60;6.10;;;-0.20;99.90;;;;;;5061039;28;20024;-75
2024/01/30 01:08:01;;;;;;;11.63;6.47;;;-0.20;99.90;;;;;;5065265;28;20411;-75
2024/01/30 01:10:28;;;;;;;9.07;6.05;;;-0.20;99.90;;;;;;5065220;28;20075;-75
2024/01/30 01:12:54;;;;;;;14.23;6.55;;;-0.40;99.90;;;;;;5064795;28;20016;-75
2024/01/30 01:15:19;;;;;;;11.82;6.55;;;0.10;99.90;;;;;;5064926;28;20220;-76
2024/01/30 01:17:46;;;;;;;10.18;5.78;;;-0.40;99.90;;;;;;5082593;28;20012;-76
2024/01/30 01:20:12;;;;;;;11.07;5.78;;;-0.40;99.90;;;;;;5064927;28;20131;-77
2024/01/30 01:22:41;;;;;;;8.52;5.97;;;-0.30;99.90;;;;;;5083039;28;20344;-74
2024/01/30 01:25:08;;;;;;;;;;;-0.40;99.90;;;;;;5065221;28;20100;-77
2024/01/30 01:27:34;;;;;;;12.57;6.35;;;-0.40;99.90;;;;;;5082398;28;19901;-76
2024/01/30 01:30:00;;;;;;;13.20;7.40;;;-0.30;99.90;;;;;;5082501;28;20012;-75
2024/01/30 01:32:26;;;;;;;12.02;6.32;;;-0.40;99.90;;;;;;5082663;28;20065;-75
2024/01/30 01:34:51;;;;;;;9.93;6.45;;;-0.40;99.90;;;;;;5083682;28;20045;-75
2024/01/30 01:37:17;;;;;;;9.98;5.88;;;-0.40;99.90;;;;;;5076791;28;20028;-75
2024/01/30 01:39:43;;;;;;;8.88;5.70;;;-0.40;99.90;;;;;;5082038;28;20084;-78
2024/01/30 01:42:09;;;;;;;11.35;6.68;;;-0.40;99.90;;;;;;5081069;28;20025;-75
2024/01/30 01:44:34;;;;;;;8.90;5.60;;;-0.20;99.90;;;;;;5080377;28;20099;-75
2024/01/30 01:47:00;;;;;;;8.98;5.30;;;-0.20;99.90;;;;;;5081016;28;20032;-76
2024/01/30 01:49:28;;;;;;;10.70;5.47;;;-0.20;99.90;;;;;;5080007;28;20035;-78
2024/01/30 01:51:58;;;;;;;8.95;5.57;;;-0.30;99.90;;;;;;5078174;28;20111;-76
2024/01/30 01:54:26;;;;;;;8.30;5.38;;;-0.40;99.90;;;;;;5080258;28;20028;-75
2024/01/30 01:56:53;;;;;;;13.15;5.25;;;-0.40;99.90;;;;;;5080449;28;20020;-76
2024/01/30 01:59:20;;;;;;;7.47;5.20;;;-0.40;99.90;;;;;;5079069;28;20208;-76
2024/01/30 02:01:48;;;;;;;8.43;4.78;;;-0.30;99.90;;;;;;5079388;28;20107;-75
2024/01/30 02:04:15;;;;;;;8.07;4.65;;;-0.20;99.90;;;;;;5080413;28;20062;-76
2024/01/30 02:06:41;;;;;;;9.18;4.97;;;-0.20;99.90;;;;;;5079281;28;20031;-75
2024/01/30 02:09:07;;;;;;;9.77;5.40;;;-0.30;99.90;;;;;;5080571;28;20013;-76
2024/01/30 02:11:33;;;;;;;7.32;4.40;;;-0.30;99.90;;;;;;5081153;28;20032;-76
2024/01/30 02:14:04;;;;;;;10.13;5.15;;;-0.40;99.90;;;;;;5080129;28;20058;-76
2024/01/30 02:16:29;;;;;;;9.23;5.07;;;-0.40;99.90;;;;;;5080472;28;20005;-76
2024/01/30 02:18:55;;;;;;;9.80;5.97;;;-0.40;99.90;;;;;;5081290;28;20056;-77
2024/01/30 02:21:21;;;;;;;8.45;5.00;;;-0.50;99.90;;;;;;5080006;28;20031;-76
2024/01/30 02:23:48;;;;;;;8.48;4.72;;;-0.60;99.90;;;;;;5080208;28;20020;-75
2024/01/30 02:26:13;;;;;;;6.82;4.70;;;-0.70;99.90;;;;;;5081401;28;20013;-76
2024/01/30 02:28:39;;;;;;;9.57;4.70;;;0.20;99.90;;;;;;5079855;28;20066;-75
2024/01/30 02:31:05;;;;;;;7.75;4.68;;;-0.60;99.90;;;;;;5081553;28;20425;-75
2024/01/30 02:33:31;;;;;;;10.60;5.50;;;-0.60;99.90;;;;;;5076223;28;20072;-76
2024/01/30 02:35:56;;;;;;;8.80;5.40;;;-0.50;99.90;;;;;;5059647;28;20096;-77
2024/01/30 02:38:23;;;;;;;8.27;4.63;;;-0.60;99.90;;;;;;5059823;28;20270;-78
2024/01/30 02:40:49;;;;;;;8.20;4.95;;;-0.70;99.90;;;;;;5059973;28;20048;-77
2024/01/30 02:43:16;;;;;;;6.22;4.32;;;-0.60;99.90;;;;;;5057840;28;20299;-76
2024/01/30 02:45:41;;;;;;;11.82;5.05;;;-0.50;99.90;;;;;;5060121;28;20333;-76
2024/01/30 02:48:07;;;;;;;8.50;5.38;;;-0.50;99.90;;;;;;5061417;28;20041;-76
2024/01/30 02:50:33;;;;;;;8.45;4.30;;;-0.30;99.90;;;;;;5060125;28;20093;-77
2024/01/30 02:52:59;;;;;;;7.75;4.90;;;-0.40;99.90;;;;;;5058468;28;20018;-75
2024/01/30 02:55:25;;;;;;;10.60;5.25;;;-0.40;99.90;;;;;;5059023;28;20025;-76
2024/01/30 02:57:50;;;;;;;7.95;4.70;;;-0.40;99.90;;;;;;5059604;28;20025;-77
2024/01/30 03:00:16;;;;;;;9.18;5.13;;;-0.40;99.90;;;;;;5059737;28;20308;-76
2024/01/30 03:02:42;;;;;;;6.43;4.25;;;-0.40;99.90;;;;;;5056912;28;20439;-77
2024/01/30 03:05:08;;;;;;;6.47;4.65;;;-0.50;99.90;;;;;;5058735;28;20063;-76
2024/01/30 03:07:34;;;;;;;6.22;4.22;;;-0.50;99.90;;;;;;5056667;28;20029;-75
2024/01/30 03:09:59;;;;;;;8.48;6.07;;;-0.40;99.90;;;;;;5060767;28;20044;-76
2024/01/30 03:12:25;;;;;;;5.53;3.47;;;-0.40;99.90;;;;;;5060609;28;20076;-77
2024/01/30 03:14:51;;;;;;;6.90;4.03;;;-0.40;99.90;;;;;;5059623;28;20320;-76
2024/01/30 03:17:17;;;;;;;6.72;4.60;;;-0.20;99.90;;;;;;5059139;28;20086;-76
2024/01/30 03:19:42;;;;;;;8.50;4.00;;;-0.30;99.90;;;;;;5058463;28;20025;-76
2024/01/30 03:22:08;;;;;;;8.88;4.85;;;-0.30;99.90;;;;;;5054217;28;20033;-76
2024/01/30 03:24:33;;;;;;;7.72;4.47;;;-0.40;99.90;;;;;;5060538;28;20399;-76
2024/01/30 03:26:59;;;;;;;10.75;5.82;;;-0.30;99.90;;;;;;5060822;28;20024;-77
2024/01/30 03:29:25;;;;;;;10.13;4.80;;;-0.40;99.90;;;;;;5062718;28;20017;-76
2024/01/30 03:31:51;;;;;;;8.98;4.40;;;-0.50;99.90;;;;;;5064614;28;20411;-76
2024/01/30 03:34:16;;;;;;;8.27;5.22;;;-0.60;99.90;;;;;;5062570;28;20117;-77
2024/01/30 03:36:42;;;;;;;6.05;4.85;;;-0.80;99.90;;;;;;5061669;28;20040;-76
2024/01/30 03:39:08;;;;;;;9.88;4.95;;;-0.70;99.90;;;;;;5059686;28;20100;-76
2024/01/30 03:41:33;;;;;;;8.55;5.18;;;-0.70;99.90;;;;;;5064202;28;20056;-78
2024/01/30 03:43:59;;;;;;;8.43;4.75;;;-0.60;99.90;;;;;;5062686;28;20013;-76
2024/01/30 03:46:25;;;;;;;7.25;4.75;;;-0.70;99.90;;;;;;5062809;28;20087;-76
2024/01/30 03:48:50;;;;;;;8.70;4.75;;;-0.50;99.90;;;;;;5062259;28;20024;-77
2024/01/30 03:51:16;;;;;;;10.18;5.25;;;-0.90;99.90;;;;;;5062021;28;20209;-75
2024/01/30 03:53:43;;;;;;;7.22;5.35;;;-0.80;99.90;;;;;;5060906;28;20033;-75
2024/01/30 03:56:09;;;;;;;6.20;4.47;;;-0.90;99.90;;;;;;5063573;28;20024;-77
2024/01/30 03:58:35;;;;;;;7.68;4.68;;;-1.00;99.90;;;;;;5062341;28;20032;-77
2024/01/30 04:01:00;;;;;;;6.80;4.22;;;-0.40;99.90;;;;;;5062606;28;20025;-76
2024/01/30 04:03:26;;;;;;;7.40;4.60;;;-0.90;99.90;;;;;;5060676;28;20025;-76
2024/01/30 04:05:53;;;;;;;8.07;3.97;;;-0.20;99.90;;;;;;5043788;28;20029;-75
2024/01/30 04:08:18;;;;;;;6.93;4.68;;;-0.70;99.90;;;;;;5045225;28;20095;-76
2024/01/30 04:10:44;;;;;;;8.80;4.63;;;-0.70;99.90;;;;;;5061527;28;20024;-77
2024/01/30 04:13:10;;;;;;;6.70;5.07;;;-0.80;99.90;;;;;;5062911;28;20016;-75
2024/01/30 04:15:36;;;;;;;5.43;3.75;;;-0.80;99.90;;;;;;5061788;28;20016;-76
2024/01/30 04:18:01;;;;;;;5.90;3.65;;;-0.90;99.90;;;;;;5060620;28;20216;-75
2024/01/30 04:20:27;;;;;;;7.88;3.83;;;-0.80;99.90;;;;;;5061867;28;20025;-76
2024/01/30 04:22:53;;;;;;;6.97;3.60;;;-0.60;99.90;;;;;;5061650;28;20036;-75
2024/01/30 04:25:19;;;;;;;5.03;3.92;;;-0.60;99.90;;;;;;5043572;28;20100;-76
2024/01/30 04:27:44;;;;;;;6.38;4.03;;;-0.50;99.90;;;;;;5061061;28;20097;-75
2024/01/30 04:30:10;;;;;;;6.65;4.03;;;-0.80;99.90;;;;;;5061022;28;20303;-75
2024/01/30 04:32:37;;;;;;;10.75;5.05;;;-0.80;99.90;;;;;;5062294;28;20078;-76
2024/01/30 04:35:03;;;;;;;7.40;3.90;;;-0.10;99.90;;;;;;5061761;28;20049;-75
2024/01/30 04:37:29;;;;;;;8.25;3.92;;;-0.70;99.90;;;;;;5061934;28;20428;-76
2024/01/30 04:39:54;;;;;;;5.72;3.80;;;-0.60;99.90;;;;;;5060464;28;20028;-75
2024/01/30 04:42:20;;;;;;;6.82;3.63;;;-0.80;99.90;;;;;;5044503;28;20249;-74
2024/01/30 04:44:46;;;;;;;8.60;4.43;;;-0.90;99.90;;;;;;5063051;28;20036;-75
2024/01/30 04:47:12;;;;;;;6.07;3.80;;;-1.00;99.90;;;;;;5060387;28;20028;-76
2024/01/30 04:49:41;;;;;;;7.43;4.65;;;-0.90;99.90;;;;;;5044374;28;20473;-74
2024/01/30 04:52:07;;;;;;;9.00;4.85;;;-0.80;99.90;;;;;;5055997;28;20089;-76
2024/01/30 04:54:34;;;;;;;8.38;5.45;;;-0.80;99.90;;;;;;5049065;28;20096;-75
2024/01/30 04:57:00;;;;;;;9.25;5.75;;;-0.70;99.90;;;;;;5031101;28;20042;-77
2024/01/30 04:59:26;;;;;;;13.07;6.43;;;-0.60;99.90;;;;;;5031443;28;20033;-76
2024/01/30 05:01:51;;;;;;;7.85;5.03;;;-0.60;99.90;;;;;;5049510;28;20033;-76
2024/01/30 05:04:17;;;;;;;8.88;5.40;;;-0.50;99.90;;;;;;5049689;28;20049;-76
2024/01/30 05:06:43;;;;;;;14.10;6.63;;;-0.40;99.90;;;;;;5031893;28;20045;-76
2024/01/30 05:09:09;;;;;;;9.65;5.38;;;-0.40;99.90;;;;;;5031430;28;20028;-76
2024/01/30 05:11:43;;;;;;;7.93;4.78;;;-0.40;99.90;;;;;;5031278;28;20033;-76
2024/01/30 05:14:10;;;;;;;4.63;3.35;;;-0.30;99.90;;;;;;5049071;28;20013;-77
2024/01/30 05:16:36;;;;;;;4.88;3.58;;;-0.30;99.90;;;;;;5031377;28;20039;-75
2024/01/30 05:19:02;;;;;;;6.18;4.20;;;-0.20;99.90;;;;;;5049642;28;20036;-76
2024/01/30 05:21:28;;;;;;;6.45;4.20;;;-0.20;99.90;;;;;;5031319;28;20033;-75
2024/01/30 05:23:53;;;;;;;12.20;5.35;;;-0.20;99.90;;;;;;5049797;28;20036;-75
2024/01/30 05:26:19;;;;;;;9.32;4.82;;;-0.20;99.90;;;;;;5050615;28;20488;-76
2024/01/30 05:28:45;;;;;;;5.90;3.88;;;-0.40;99.90;;;;;;5050691;28;20458;-75
2024/01/30 05:31:11;;;;;;;6.85;5.88;;;-0.40;99.90;;;;;;5050852;28;20025;-76
2024/01/30 05:33:36;;;;;;;7.43;4.53;;;0.00;99.90;;;;;;5050462;28;20056;-75
2024/01/30 05:36:03;;;;;;;8.38;4.50;;;-0.20;99.90;;;;;;5050832;28;20117;-75
2024/01/30 05:38:30;;;;;;;9.07;4.63;;;-0.40;99.90;;;;;;5032924;28;20452;-75
2024/01/30 05:40:57;;;;;;;9.20;5.32;;;-0.40;99.90;;;;;;5050812;28;20025;-77
2024/01/30 05:43:23;;;;;;;7.57;4.05;;;-0.50;99.90;;;;;;5049805;28;20033;-75
2024/01/30 05:45:49;;;;;;;10.60;5.50;;;-0.40;99.90;;;;;;5050287;28;20055;-75
2024/01/30 05:48:15;;;;;;;13.57;5.43;;;-0.40;99.90;;;;;;5032574;28;20029;-75
2024/01/30 05:50:40;;;;;;;6.53;4.22;;;-0.50;99.90;;;;;;5049912;28;20055;-75
2024/01/30 05:53:06;;;;;;;8.10;4.63;;;-0.60;99.90;;;;;;5049696;28;20068;-75
2024/01/30 05:55:32;;;;;;;8.77;4.15;;;-0.50;99.90;;;;;;5050286;28;20028;-75
2024/01/30 05:57:57;;;;;;;7.85;4.63;;;-0.60;99.90;;;;;;5031907;28;20047;-75
2024/01/30 06:00:23;;;;;;;5.63;4.20;;;-0.50;99.90;;;;;;5050529;28;20454;-75
2024/01/30 06:02:49;;;;;;;6.13;4.10;;;-0.60;99.90;;;;;;5049914;28;20037;-78
2024/01/30 06:05:15;;;;;;;8.38;4.80;;;-0.70;99.90;;;;;;5032265;28;20021;-76
2024/01/30 06:07:40;;;;;;;6.03;3.95;;;-0.60;99.90;;;;;;5050737;28;20025;-76
2024/01/30 06:10:06;;;;;;;9.27;5.40;;;-0.60;99.90;;;;;;5050557;28;20052;-76
2024/01/30 06:12:32;;;;;;;8.43;5.35;;;-0.60;99.90;;;;;;5050498;28;20086;-76
2024/01/30 06:14:58;;;;;;;7.45;4.20;;;-0.70;99.90;;;;;;5050285;28;20501;-79
2024/01/30 06:17:24;;;;;;;8.85;4.40;;;-0.70;99.90;;;;;;5050295;28;20036;-78
2024/01/30 06:19:50;;;;;;;7.15;4.90;;;-0.20;99.90;;;;;;5050992;28;20484;-76
2024/01/30 06:22:16;;;;;;;7.93;5.07;;;-0.60;99.90;;;;;;5032878;28;20202;-77
2024/01/30 06:24:44;;;;;;;8.68;4.20;;;-0.80;99.90;;;;;;5050609;28;20032;-77
2024/01/30 06:27:10;;;;;;;11.98;5.60;;;-1.00;99.90;;;;;;5051499;28;20264;-76
2024/01/30 06:29:36;;;;;;;6.50;3.85;;;-0.90;99.90;;;;;;5052087;28;20361;-77
2024/01/30 06:32:02;;;;;;;9.75;4.82;;;-0.90;99.90;;;;;;5032819;28;20094;-76
2024/01/30 06:34:27;;;;;;;11.23;6.95;;;-0.90;99.90;;;;;;5051041;28;20041;-78
2024/01/30 06:36:53;;;;;;;5.55;3.85;;;-0.50;99.90;;;;;;5060102;28;20020;-78
2024/01/30 06:39:21;;;;;;;7.63;3.90;;;-0.90;99.90;;;;;;5058419;28;20462;-80
2024/01/30 06:41:47;;;;;;;13.33;5.57;;;-1.40;99.90;;;;;;5063025;28;20033;-80
2024/01/30 06:44:13;;;;;;;7.55;4.68;;;-1.50;99.90;;;;;;5060449;28;20260;-77
2024/01/30 06:46:39;;;;;;;10.20;6.07;;;-1.60;99.90;;;;;;5043209;28;20394;-83
2024/01/30 06:49:04;;;;;;;8.60;5.20;;;-1.60;99.90;;;;;;5066372;28;20017;-81
2024/01/30 06:51:30;;;;;;;13.20;5.25;;;-1.60;99.90;;;;;;5062146;28;20449;-81
2024/01/30 06:53:56;;;;;;;14.95;5.88;;;-1.70;99.90;;;;;;5041502;28;20047;-77
2024/01/30 06:56:22;;;;;;;9.52;5.18;;;-1.70;99.90;;;;;;5063180;28;20036;-80
2024/01/30 06:58:51;;;;;;;7.68;5.28;;;-1.70;99.90;;;;;;5045662;28;20051;-79
2024/01/30 07:01:16;;;;;;;11.43;6.25;;;-1.80;99.90;;;;;;5044542;28;20512;-79
2024/01/30 07:03:43;;;;;;;9.50;5.20;;;-1.80;99.90;;;;;;5057861;28;20052;-82
2024/01/30 07:06:10;;;;;;;8.13;4.43;;;-1.80;99.90;;;;;;5055725;28;20038;-83
2024/01/30 07:08:38;;;;;;;7.40;4.65;;;-1.80;99.90;;;;;;5050347;28;20025;-79
2024/01/30 07:11:05;;;;;;;9.75;5.35;;;-1.50;99.90;;;;;;5068659;28;20049;-80
2024/01/30 07:13:30;;;;;;;10.35;5.80;;;-1.60;99.90;;;;;;5063229;28;20037;-78
2024/01/30 07:15:56;;;;;;;8.05;4.40;;;-1.40;99.90;;;;;;5064505;28;20462;-77
2024/01/30 07:18:23;;;;;;;8.18;4.72;;;-1.40;99.90;;;;;;5064150;28;20021;-79
2024/01/30 07:20:49;;;;;;;9.20;5.88;;;-1.60;99.90;;;;;;5062467;28;20028;-74
2024/01/30 07:23:17;;;;;;;11.70;5.97;;;-1.10;99.90;;;;;;5042836;28;20531;-78
2024/01/30 07:25:48;;;;;;;9.75;4.93;;;-1.10;99.90;;;;;;5044466;28;20021;-77
2024/01/30 07:28:16;;;;;;;8.57;3.83;;;-1.30;99.90;;;;;;5063374;28;20056;-80
2024/01/30 07:30:42;;;;;;;12.55;7.55;;;-1.20;99.90;;;;;;5047652;28;20021;-80
2024/01/30 07:33:08;;;;;;;10.02;4.85;;;-1.20;99.90;;;;;;5065880;28;20059;-78
2024/01/30 07:35:35;;;;;;;9.85;5.30;;;-1.10;99.90;;;;;;5039645;28;20405;-83
2024/01/30 07:38:01;;;;;;;8.55;4.30;;;-1.10;99.90;;;;;;5036110;28;20030;-81
2024/01/30 07:40:27;;;;;;;7.97;5.28;;;-1.00;99.90;;;;;;5037958;28;20025;-76
2024/01/30 07:42:53;;;;;;;6.88;4.43;;;-0.80;99.90;;;;;;5034406;28;20520;-74
2024/01/30 07:45:24;;;;;;;9.20;4.97;;;-0.70;99.90;;;;;;5048439;28;20029;-74
2024/01/30 07:47:50;;;;;;;8.80;4.40;;;-0.60;99.90;;;;;;5070124;28;20028;-73
2024/01/30 07:50:16;;;;;;;5.45;3.47;;;-0.40;99.90;;;;;;5054054;28;20020;-74
2024/01/30 07:52:42;;;;;;;6.72;4.57;;;-0.40;99.90;;;;;;5035331;28;20116;-74
2024/01/30 07:55:12;;;;;;;12.48;7.10;;;-0.30;99.90;;;;;;5052306;28;20385;-73
2024/01/30 07:57:43;;;;;;;7.65;4.63;;;-0.10;99.90;;;;;;5033933;28;20490;-74
2024/01/30 08:00:09;;;;;;;15.23;7.55;;;-0.10;99.90;;;;;;5033855;28;20103;-74
2024/01/30 08:02:35;;;;;;;7.45;3.80;;;0.10;99.90;;;;;;5052573;28;20520;-77
2024/01/30 08:05:01;;;;;;;6.50;4.28;;;0.50;99.90;;;;;;5053560;28;20021;-76
2024/01/30 08:07:29;;;;;;;5.95;4.38;;;0.20;99.90;;;;;;5072096;28;20423;-77
2024/01/30 08:09:55;;;;;;;8.38;4.18;;;0.40;99.90;;;;;;5071954;28;20046;-77
2024/01/30 08:12:20;;;;;;;7.13;4.60;;;0.50;99.90;;;;;;5071670;28;20107;-77
2024/01/30 08:14:46;;;;;;;6.00;4.22;;;0.60;99.90;;;;;;5070667;28;20025;-76
2024/01/30 08:17:12;;;;;;;6.97;4.03;;;1.10;99.90;;;;;;5071865;28;20248;-82
2024/01/30 08:19:37;;;;;;;8.05;4.70;;;1.10;99.90;;;;;;5053740;28;20020;-74
2024/01/30 08:22:03;;;;;;;8.35;4.03;;;1.10;99.90;;;;;;5048578;28;20029;-76
2024/01/30 08:24:29;;;;;;;5.32;3.85;;;1.50;99.90;;;;;;5053323;28;20051;-76
2024/01/30 08:26:58;;;;;;;6.55;5.07;;;1.30;99.90;;;;;;5071567;28;20039;-77
2024/01/30 08:29:55;;;;;;;7.95;3.97;;;1.20;99.90;;;;;;5071453;28;20017;-75
2024/01/30 08:32:21;;;;;;;8.45;5.13;;;1.40;99.90;;;;;;5069095;28;20041;-76
2024/01/30 08:34:55;;;;;;;21.55;8.18;;;1.60;99.90;;;;;;5071354;28;20040;-77
2024/01/30 08:37:21;;;;;;;9.07;5.18;;;1.70;99.90;;;;;;5053360;28;20025;-74
2024/01/30 08:39:47;;;;;;;11.25;6.25;;;1.80;99.90;;;;;;5066906;28;20052;-76
2024/01/30 08:42:12;;;;;;;15.95;6.97;;;1.70;99.90;;;;;;5032985;28;20033;-75
2024/01/30 08:44:38;;;;;;;14.63;7.25;;;1.80;99.90;;;;;;5051190;28;20025;-75
2024/01/30 08:47:05;;;;;;;39.13;18.42;;;2.00;99.90;;;;;;5051300;28;20504;-74
2024/01/30 08:49:31;;;;;;;14.00;7.25;;;1.90;99.90;;;;;;5033291;28;20041;-74
2024/01/30 08:51:57;;;;;;;14.45;7.63;;;1.80;99.90;;;;;;5051544;28;20485;-76
2024/01/30 08:54:23;;;;;;;11.20;6.95;;;1.80;99.90;;;;;;5033110;28;20032;-76
2024/01/30 08:56:49;;;;;;;10.48;6.63;;;1.90;99.90;;;;;;5050898;28;20036;-78
2024/01/30 08:59:15;;;;;;;10.23;4.35;;;2.00;99.90;;;;;;5032075;28;20021;-76
2024/01/30 09:01:40;;;;;;;9.13;5.07;;;2.10;99.90;;;;;;5050126;28;20064;-75
2024/01/30 09:04:06;;;;;;;14.05;7.45;;;2.30;99.90;;;;;;5032388;28;20482;-76
2024/01/30 09:06:32;;;;;;;13.73;6.88;;;2.30;99.90;;;;;;5032569;28;20112;-76
2024/01/30 09:08:57;;;;;;;13.40;7.38;;;2.40;99.90;;;;;;5050932;28;20025;-77
2024/01/30 09:11:23;;;;;;;6.40;4.45;;;2.50;99.90;;;;;;5050653;28;20025;-78
2024/01/30 09:13:49;;;;;;;10.27;5.07;;;2.50;99.90;;;;;;5032320;28;20484;-78
2024/01/30 09:16:16;;;;;;;8.02;4.55;;;2.50;99.90;;;;;;5051350;28;20032;-77
2024/01/30 09:18:42;;;;;;;10.70;5.53;;;2.60;99.90;;;;;;5050766;28;20056;-75
2024/01/30 09:21:07;;;;;;;10.88;5.47;;;2.70;99.90;;;;;;5032899;28;20032;-77
2024/01/30 09:23:33;;;;;;;12.02;7.93;;;2.80;99.90;;;;;;5034395;28;20032;-74
2024/01/30 09:25:59;;;;;;;20.67;11.43;;;2.80;99.90;;;;;;5045476;28;20017;-81
2024/01/30 09:28:26;;;;;;;18.20;10.88;;;2.90;99.90;;;;;;5050817;28;20462;-76
2024/01/30 09:30:51;;;;;;;23.80;13.52;;;3.10;99.90;;;;;;5052662;28;20460;-77
2024/01/30 09:33:22;;;;;;;26.90;12.95;;;3.20;99.90;;;;;;5049989;28;20036;-76
2024/01/30 09:35:55;;;;;;;20.23;11.38;;;3.40;99.90;;;;;;5049897;28;20025;-77
2024/01/30 09:38:21;;;;;;;20.33;11.23;;;3.50;99.90;;;;;;5049596;28;20028;-77
2024/01/30 09:40:57;;;;;;;19.58;11.02;;;3.60;99.90;;;;;;5044339;28;20085;-76
2024/01/30 09:43:37;;;;;;;18.58;10.35;;;3.60;99.90;;;;;;5050843;28;20076;-77
2024/01/30 09:46:05;;;;;;;19.13;11.07;;;3.80;99.90;;;;;;5069264;28;20465;-76
2024/01/30 09:48:31;;;;;;;15.48;9.77;;;3.90;99.90;;;;;;5051555;28;20388;-77
2024/01/30 09:51:00;;;;;;;17.55;10.20;;;4.00;99.90;;;;;;5070070;28;20037;-76
2024/01/30 09:53:32;;;;;;;16.35;9.75;;;3.90;99.90;;;;;;5051883;28;20082;-77
2024/01/30 09:56:25;;;;;;;15.57;9.48;;;4.00;99.90;;;;;;5069204;28;20105;-76
2024/01/30 10:02:21;;;;;;;14.32;8.63;;;4.00;99.90;;;;;;4955013;28;20038;-77
2024/01/30 10:04:51;;;;;;;15.15;8.52;;;4.30;99.90;;;;;;5030901;28;20041;-77
2024/01/30 10:07:20;;;;;;;12.63;7.82;;;4.30;99.90;;;;;;5069739;28;20499;-76
2024/01/30 10:09:46;;;;;;;11.82;8.75;;;4.40;99.90;;;;;;5051793;28;20016;-76
2024/01/30 10:12:12;;;;;;;13.13;8.48;;;4.40;99.90;;;;;;5039866;28;20027;-74
2024/01/30 10:14:42;;;;;;;12.43;7.90;;;4.50;99.90;;;;;;5051576;28;20028;-76
2024/01/30 10:17:12;;;;;;;11.57;7.38;;;4.40;99.90;;;;;;5067986;28;20035;-75
2024/01/30 10:19:40;;;;;;;18.75;10.90;;;4.40;99.90;;;;;;5051150;28;20031;-75
2024/01/30 10:22:06;;;;;;;14.90;10.27;;;4.40;99.90;;;;;;5063011;28;20036;-75
2024/01/30 10:24:33;;;;;;;14.27;10.05;;;4.50;99.90;;;;;;5049023;28;20025;-74
2024/01/30 10:26:59;;;;;;;17.17;10.88;;;4.50;99.90;;;;;;5048802;28;20032;-74
2024/01/30 10:29:25;;;;;;;15.80;9.77;;;4.60;99.90;;;;;;5049243;28;20075;-75
2024/01/30 10:32:05;;;;;;;18.27;10.05;;;4.90;99.90;;;;;;5049174;28;20492;-74
2024/01/30 10:34:32;;;;;;;19.45;8.77;;;5.00;99.90;;;;;;5034966;28;20156;-75
2024/01/30 10:37:17;;;;;;;11.90;7.22;;;5.20;99.90;;;;;;5067333;28;20492;-75
2024/01/30 10:39:44;;;;;;;9.90;6.93;;;5.40;99.90;;;;;;5067634;28;20020;-74
2024/01/30 10:42:18;;;;;;;9.05;6.32;;;5.60;99.90;;;;;;5068641;28;20081;-75
2024/01/30 10:45:08;;;;;;;11.27;6.97;;;5.60;99.90;;;;;;5068660;28;20039;-74
2024/01/30 10:47:36;;;;;;;7.32;5.20;;;5.90;99.90;;;;;;5067730;28;20110;-74
2024/01/30 10:50:05;;;;;;;10.13;6.72;;;6.00;99.90;;;;;;5068894;28;20617;-75
2024/01/30 10:52:32;;;;;;;13.20;7.82;;;6.20;99.90;;;;;;5067501;28;20031;-76
2024/01/30 10:55:17;;;;;;;14.07;7.75;;;6.50;99.90;;;;;;5069052;28;20021;-75
2024/01/30 10:57:43;;;;;;;11.88;7.07;;;6.70;99.90;;;;;;5068563;28;20020;-76
2024/01/30 11:00:23;;;;;;;10.30;5.72;;;6.70;99.90;;;;;;5068826;28;20046;-77
2024/01/30 11:03:15;;;;;;;8.50;5.13;;;6.80;99.90;;;;;;5067050;28;20090;-84
2024/01/30 11:06:55;;;;;;;9.05;6.00;;;6.70;99.90;;;;;;5067503;28;20024;-77
2024/01/30 11:09:34;;;;;;;14.75;6.43;;;6.80;99.90;;;;;;5057290;28;20115;-77
2024/01/30 11:12:03;;;;;;;9.18;6.25;;;7.00;99.90;;;;;;5067326;28;20114;-77
2024/01/30 11:14:30;;;;;;;10.27;5.65;;;7.30;99.90;;;;;;5068388;28;20020;-76
2024/01/30 11:16:59;;;;;;;20.65;11.10;;;7.60;99.90;;;;;;5067335;28;20133;-77
2024/01/30 11:19:51;;;;;;;13.05;7.75;;;7.90;99.90;;;;;;5068668;28;20697;-76
2024/01/30 11:22:20;;;;;;;9.80;6.63;;;8.20;99.90;;;;;;5067351;28;20036;-78
2024/01/30 11:24:47;;;;;;;10.38;5.90;;;8.30;99.90;;;;;;5068226;28;20469;-78
2024/01/30 11:27:15;;;;;;;11.05;6.15;;;8.60;99.90;;;;;;5068004;28;20032;-76
2024/01/30 11:29:41;;;;;;;9.40;6.00;;;8.70;99.90;;;;;;5068824;28;20023;-78
2024/01/30 11:32:09;;;;;;;8.82;5.40;;;9.00;99.90;;;;;;5067327;28;20024;-77
2024/01/30 11:34:41;;;;;;;9.23;5.38;;;9.20;99.90;;;;;;5067038;28;20139;-79
2024/01/30 11:37:12;;;;;;;8.32;5.30;;;9.50;99.90;;;;;;5067223;28;20119;-76
2024/01/30 11:39:38;;;;;;;7.28;5.43;;;9.60;99.90;;;;;;5068216;28;20021;-77
2024/01/30 11:42:08;;;;;;;7.20;4.78;;;9.80;99.90;;;;;;5067006;28;20154;-77
2024/01/30 11:44:34;;;;;;;9.23;5.55;;;9.80;99.90;;;;;;5066834;28;20025;-77
2024/01/30 11:47:03;;;;;;;6.35;4.75;;;9.80;99.90;;;;;;5066702;28;20063;-77
2024/01/30 11:49:32;;;;;;;10.73;5.43;;;9.90;99.90;;;;;;5070197;28;20396;-77
2024/01/30 11:51:58;;;;;;;7.27;4.37;;;10.10;99.90;;;;;;5070753;28;20033;-78
2024/01/30 11:54:48;;;;;;;8.45;4.70;;;10.30;99.90;;;;;;5070599;28;20146;-77
2024/01/30 11:57:14;;;;;;;10.52;5.07;;;10.40;99.90;;;;;;5063369;28;20508;-78
2024/01/30 11:59:40;;;;;;;6.43;4.63;;;10.50;99.90;;;;;;5071760;28;20032;-78
2024/01/30 12:02:06;;;;;;;6.63;4.47;;;10.40;99.90;;;;;;5071865;28;20039;-76
2024/01/30 12:04:32;;;;;;;9.75;4.97;;;10.40;99.90;;;;;;5070096;28;20021;-77
2024/01/30 12:06:58;;;;;;;8.25;4.88;;;10.50;99.90;;;;;;5071528;28;20020;-79
2024/01/30 12:09:27;;;;;;;6.40;4.55;;;10.60;99.90;;;;;;5070459;28;20043;-78
2024/01/30 12:12:03;;;;;;;8.57;5.20;;;10.50;99.90;;;;;;5070150;28;20112;-77
2024/01/30 12:14:29;;;;;;;11.35;6.95;;;11.00;99.80;;;;;;5071742;28;20120;-78
2024/01/30 12:16:58;;;;;;;9.82;5.47;;;10.90;98.70;;;;;;5071355;28;20039;-76
2024/01/30 12:19:34;;;;;;;7.60;4.53;;;11.20;99.90;;;;;;5070216;28;20024;-77
2024/01/30 12:22:02;;;;;;;5.05;4.38;;;11.30;99.00;;;;;;5069749;28;20082;-77
2024/01/30 12:24:31;;;;;;;6.13;4.47;;;11.60;98.50;;;;;;5069715;28;20393;-77
2024/01/30 12:27:23;;;;;;;5.32;4.13;;;11.80;97.50;;;;;;5071091;28;20036;-76
2024/01/30 12:29:57;;;;;;;5.18;4.20;;;12.00;96.00;;;;;;5071334;28;20082;-77
2024/01/30 12:32:24;;;;;;;7.15;4.30;;;11.90;96.10;;;;;;5069969;28;20020;-78
2024/01/30 12:35:13;;;;;;;6.15;4.45;;;12.00;95.70;;;;;;5069739;28;20048;-77
2024/01/30 12:38:11;;;;;;;6.75;4.45;;;11.20;94.10;;;;;;5060649;28;20033;-77
2024/01/30 12:40:41;;;;;;;6.20;4.70;;;12.00;94.20;;;;;;5068928;28;20032;-80
2024/01/30 12:43:10;;;;;;;8.50;5.32;;;12.10;94.30;;;;;;5069086;28;20528;-77
2024/01/30 12:45:39;;;;;;;8.07;5.90;;;11.20;91.80;;;;;;5069894;28;20024;-76
2024/01/30 12:48:11;;;;;;;;;;;11.90;91.60;;;;;;5069620;28;20024;-76
2024/01/30 12:50:36;;;;;;;8.23;5.38;;;11.80;92.20;;;;;;5067906;28;19908;-77
2024/01/30 12:53:05;;;;;;;7.00;5.22;;;11.90;93.70;;;;;;5070555;28;20086;-76
2024/01/30 12:55:31;;;;;;;9.02;5.97;;;11.80;93.50;;;;;;5070816;28;20020;-77